sensor_id;sensor_type;location;lat;lon;timestamp;P1;durP1;ratioP1;P2;durP2;ratioP2
757;SDS011;363;48.764;9.172;2023-05-14T00:01:11;10.63;;;9.73;;
757;SDS011;363;48.764;9.172;2023-05-14T00:03:36;10.23;;;9.23;;
757;SDS011;363;48.764;9.172;2023-05-14T00:06:04;10.38;;;9.48;;
757;SDS011;363;48.764;9.172;2023-05-14T00:08:31;9.77;;;8.88;;
757;SDS011;363;48.764;9.172;2023-05-14T00:10:57;8.93;;;8.23;;
757;SDS011;363;48.764;9.172;2023-05-14T00:13:23;8.73;;;7.93;;
757;SDS011;363;48.764;9.172;2023-05-14T00:15:49;10.38;;;9.48;;
757;SDS011;363;48.764;9.172;2023-05-14T00:18:15;10.67;;;9.67;;
757;SDS011;363;48.764;9.172;2023-05-14T00:20:41;8.90;;;8.00;;
757;SDS011;363;48.764;9.172;2023-05-14T00:23:06;9.77;;;8.87;;
757;SDS011;363;48.764;9.172;2023-05-14T00:25:32;11.30;;;10.10;;
757;SDS011;363;48.764;9.172;2023-05-14T00:27:57;9.57;;;8.73;;
757;SDS011;363;48.764;9.172;2023-05-14T00:30:23;10.10;;;9.00;;
757;SDS011;363;48.764;9.172;2023-05-14T00:32:49;10.07;;;9.17;;
757;SDS011;363;48.764;9.172;2023-05-14T00:35:14;9.70;;;8.80;;
757;SDS011;363;48.764;9.172;2023-05-14T00:37:40;10.47;;;9.57;;
757;SDS011;363;48.764;9.172;2023-05-14T00:40:06;9.63;;;8.80;;
757;SDS011;363;48.764;9.172;2023-05-14T00:42:32;8.90;;;8.00;;
757;SDS011;363;48.764;9.172;2023-05-14T00:44:58;10.63;;;8.90;;
757;SDS011;363;48.764;9.172;2023-05-14T00:47:24;9.10;;;8.27;;
757;SDS011;363;48.764;9.172;2023-05-14T00:49:50;10.07;;;9.07;;
757;SDS011;363;48.764;9.172;2023-05-14T00:52:15;9.13;;;8.23;;
757;SDS011;363;48.764;9.172;2023-05-14T00:54:42;9.85;;;8.95;;
757;SDS011;363;48.764;9.172;2023-05-14T00:57:10;9.82;;;8.93;;
757;SDS011;363;48.764;9.172;2023-05-14T00:59:36;9.53;;;8.73;;
757;SDS011;363;48.764;9.172;2023-05-14T01:02:04;10.73;;;9.77;;
757;SDS011;363;48.764;9.172;2023-05-14T01:04:30;10.40;;;9.50;;
757;SDS011;363;48.764;9.172;2023-05-14T01:09:41;12.02;;;10.82;;
757;SDS011;363;48.764;9.172;2023-05-14T01:12:16;12.15;;;10.95;;
757;SDS011;363;48.764;9.172;2023-05-14T01:15:07;10.98;;;9.98;;
757;SDS011;363;48.764;9.172;2023-05-14T01:17:37;11.45;;;10.45;;
757;SDS011;363;48.764;9.172;2023-05-14T01:20:07;12.20;;;11.02;;
757;SDS011;363;48.764;9.172;2023-05-14T01:22:33;12.02;;;10.95;;
757;SDS011;363;48.764;9.172;2023-05-14T01:24:59;13.43;;;12.13;;
757;SDS011;363;48.764;9.172;2023-05-14T01:27:28;11.70;;;10.60;;
757;SDS011;363;48.764;9.172;2023-05-14T01:32:55;12.43;;;11.30;;
757;SDS011;363;48.764;9.172;2023-05-14T01:35:25;13.07;;;11.95;;
757;SDS011;363;48.764;9.172;2023-05-14T01:37:53;11.57;;;10.48;;
757;SDS011;363;48.764;9.172;2023-05-14T01:40:27;11.52;;;10.52;;
757;SDS011;363;48.764;9.172;2023-05-14T01:42:54;11.27;;;10.20;;
757;SDS011;363;48.764;9.172;2023-05-14T01:45:20;12.68;;;11.48;;
757;SDS011;363;48.764;9.172;2023-05-14T01:47:47;12.50;;;11.30;;
757;SDS011;363;48.764;9.172;2023-05-14T01:50:13;11.57;;;10.40;;
757;SDS011;363;48.764;9.172;2023-05-14T01:52:39;11.87;;;10.77;;
757;SDS011;363;48.764;9.172;2023-05-14T01:55:04;17.63;;;14.40;;
757;SDS011;363;48.764;9.172;2023-05-14T01:57:31;13.75;;;12.45;;
757;SDS011;363;48.764;9.172;2023-05-14T01:59:56;11.47;;;10.47;;
757;SDS011;363;48.764;9.172;2023-05-14T02:02:22;14.63;;;13.00;;
757;SDS011;363;48.764;9.172;2023-05-14T02:04:48;12.47;;;11.27;;
757;SDS011;363;48.764;9.172;2023-05-14T02:07:13;11.10;;;10.10;;
757;SDS011;363;48.764;9.172;2023-05-14T02:09:39;13.43;;;12.10;;
757;SDS011;363;48.764;9.172;2023-05-14T02:12:05;11.67;;;10.50;;
757;SDS011;363;48.764;9.172;2023-05-14T02:14:35;12.10;;;10.98;;
757;SDS011;363;48.764;9.172;2023-05-14T02:17:01;14.60;;;10.67;;
757;SDS011;363;48.764;9.172;2023-05-14T02:19:27;14.50;;;12.27;;
757;SDS011;363;48.764;9.172;2023-05-14T02:21:53;11.80;;;10.60;;
757;SDS011;363;48.764;9.172;2023-05-14T02:24:19;12.77;;;11.33;;
757;SDS011;363;48.764;9.172;2023-05-14T02:26:44;12.67;;;11.40;;
757;SDS011;363;48.764;9.172;2023-05-14T02:29:10;13.07;;;11.80;;
757;SDS011;363;48.764;9.172;2023-05-14T02:31:36;12.93;;;11.60;;
757;SDS011;363;48.764;9.172;2023-05-14T02:34:01;12.13;;;11.03;;
757;SDS011;363;48.764;9.172;2023-05-14T02:36:28;12.20;;;11.10;;
757;SDS011;363;48.764;9.172;2023-05-14T02:38:53;12.23;;;10.83;;
757;SDS011;363;48.764;9.172;2023-05-14T02:41:19;11.37;;;10.27;;
757;SDS011;363;48.764;9.172;2023-05-14T02:43:45;12.52;;;11.32;;
757;SDS011;363;48.764;9.172;2023-05-14T02:46:12;12.68;;;11.48;;
757;SDS011;363;48.764;9.172;2023-05-14T02:48:37;13.60;;;12.27;;
757;SDS011;363;48.764;9.172;2023-05-14T02:51:03;12.20;;;11.10;;
757;SDS011;363;48.764;9.172;2023-05-14T02:53:28;12.40;;;11.30;;
757;SDS011;363;48.764;9.172;2023-05-14T02:55:54;12.17;;;11.13;;
757;SDS011;363;48.764;9.172;2023-05-14T02:58:20;12.60;;;11.30;;
757;SDS011;363;48.764;9.172;2023-05-14T03:00:45;12.40;;;11.20;;
757;SDS011;363;48.764;9.172;2023-05-14T03:03:11;11.10;;;9.93;;
757;SDS011;363;48.764;9.172;2023-05-14T03:05:36;10.50;;;9.50;;
757;SDS011;363;48.764;9.172;2023-05-14T03:08:02;9.87;;;9.00;;
757;SDS011;363;48.764;9.172;2023-05-14T03:10:28;12.67;;;9.20;;
757;SDS011;363;48.764;9.172;2023-05-14T03:12:53;9.63;;;8.63;;
757;SDS011;363;48.764;9.172;2023-05-14T03:15:19;9.60;;;8.80;;
757;SDS011;363;48.764;9.172;2023-05-14T03:17:44;9.83;;;8.93;;
757;SDS011;363;48.764;9.172;2023-05-14T03:20:11;10.07;;;9.17;;
757;SDS011;363;48.764;9.172;2023-05-14T03:22:37;10.23;;;9.38;;
757;SDS011;363;48.764;9.172;2023-05-14T03:25:02;10.53;;;9.53;;
757;SDS011;363;48.764;9.172;2023-05-14T03:27:28;11.03;;;10.03;;
757;SDS011;363;48.764;9.172;2023-05-14T03:29:54;10.20;;;9.30;;
757;SDS011;363;48.764;9.172;2023-05-14T03:32:19;10.00;;;9.10;;
757;SDS011;363;48.764;9.172;2023-05-14T03:34:45;10.23;;;9.37;;
757;SDS011;363;48.764;9.172;2023-05-14T03:37:11;10.07;;;9.07;;
757;SDS011;363;48.764;9.172;2023-05-14T03:39:36;9.80;;;8.90;;
757;SDS011;363;48.764;9.172;2023-05-14T03:42:02;10.30;;;9.30;;
757;SDS011;363;48.764;9.172;2023-05-14T03:44:28;10.10;;;9.20;;
757;SDS011;363;48.764;9.172;2023-05-14T03:46:53;10.27;;;9.30;;
757;SDS011;363;48.764;9.172;2023-05-14T03:49:19;9.55;;;8.65;;
757;SDS011;363;48.764;9.172;2023-05-14T03:51:45;11.30;;;10.30;;
757;SDS011;363;48.764;9.172;2023-05-14T03:54:11;10.53;;;9.53;;
757;SDS011;363;48.764;9.172;2023-05-14T03:56:36;11.43;;;10.33;;
757;SDS011;363;48.764;9.172;2023-05-14T03:59:02;10.60;;;9.60;;
757;SDS011;363;48.764;9.172;2023-05-14T04:01:27;10.33;;;9.43;;
757;SDS011;363;48.764;9.172;2023-05-14T04:03:53;11.50;;;10.40;;
757;SDS011;363;48.764;9.172;2023-05-14T04:06:19;10.13;;;9.23;;
757;SDS011;363;48.764;9.172;2023-05-14T04:08:44;12.10;;;10.20;;
757;SDS011;363;48.764;9.172;2023-05-14T04:11:10;11.07;;;9.97;;
757;SDS011;363;48.764;9.172;2023-05-14T04:13:35;11.10;;;10.03;;
757;SDS011;363;48.764;9.172;2023-05-14T04:16:01;11.10;;;10.00;;
757;SDS011;363;48.764;9.172;2023-05-14T04:18:27;11.20;;;10.10;;
757;SDS011;363;48.764;9.172;2023-05-14T04:20:52;11.50;;;10.30;;
757;SDS011;363;48.764;9.172;2023-05-14T04:23:18;10.20;;;9.20;;
757;SDS011;363;48.764;9.172;2023-05-14T04:25:43;10.17;;;9.17;;
757;SDS011;363;48.764;9.172;2023-05-14T04:28:09;9.33;;;8.50;;
757;SDS011;363;48.764;9.172;2023-05-14T04:30:34;10.53;;;9.50;;
757;SDS011;363;48.764;9.172;2023-05-14T04:33:00;10.70;;;9.60;;
757;SDS011;363;48.764;9.172;2023-05-14T04:35:26;10.73;;;9.68;;
757;SDS011;363;48.764;9.172;2023-05-14T04:37:52;10.70;;;9.70;;
757;SDS011;363;48.764;9.172;2023-05-14T04:40:17;10.33;;;9.37;;
757;SDS011;363;48.764;9.172;2023-05-14T04:42:43;9.23;;;8.43;;
757;SDS011;363;48.764;9.172;2023-05-14T04:45:09;9.03;;;8.13;;
757;SDS011;363;48.764;9.172;2023-05-14T04:47:35;9.30;;;8.40;;
757;SDS011;363;48.764;9.172;2023-05-14T04:50:01;10.03;;;9.10;;
757;SDS011;363;48.764;9.172;2023-05-14T04:52:26;10.83;;;9.83;;
757;SDS011;363;48.764;9.172;2023-05-14T04:54:52;9.60;;;8.70;;
757;SDS011;363;48.764;9.172;2023-05-14T04:57:18;9.77;;;8.97;;
757;SDS011;363;48.764;9.172;2023-05-14T04:59:43;9.93;;;9.00;;
757;SDS011;363;48.764;9.172;2023-05-14T05:02:09;10.40;;;9.50;;
757;SDS011;363;48.764;9.172;2023-05-14T05:04:35;9.67;;;8.87;;
757;SDS011;363;48.764;9.172;2023-05-14T05:07:01;9.20;;;8.30;;
757;SDS011;363;48.764;9.172;2023-05-14T05:09:26;9.93;;;9.03;;
757;SDS011;363;48.764;9.172;2023-05-14T05:11:52;9.13;;;8.23;;
757;SDS011;363;48.764;9.172;2023-05-14T05:14:17;10.17;;;9.27;;
757;SDS011;363;48.764;9.172;2023-05-14T05:16:43;10.43;;;9.50;;
757;SDS011;363;48.764;9.172;2023-05-14T05:19:09;10.40;;;9.47;;
757;SDS011;363;48.764;9.172;2023-05-14T05:21:34;10.17;;;9.27;;
757;SDS011;363;48.764;9.172;2023-05-14T05:24:00;10.07;;;9.17;;
757;SDS011;363;48.764;9.172;2023-05-14T05:26:26;9.60;;;8.63;;
757;SDS011;363;48.764;9.172;2023-05-14T05:28:52;9.37;;;8.57;;
757;SDS011;363;48.764;9.172;2023-05-14T05:31:17;9.70;;;8.80;;
757;SDS011;363;48.764;9.172;2023-05-14T05:33:43;9.57;;;8.67;;
757;SDS011;363;48.764;9.172;2023-05-14T05:36:09;9.77;;;8.87;;
757;SDS011;363;48.764;9.172;2023-05-14T05:38:34;8.60;;;7.90;;
757;SDS011;363;48.764;9.172;2023-05-14T05:41:00;10.00;;;9.10;;
757;SDS011;363;48.764;9.172;2023-05-14T05:43:25;9.33;;;8.43;;
757;SDS011;363;48.764;9.172;2023-05-14T05:45:52;10.10;;;9.10;;
757;SDS011;363;48.764;9.172;2023-05-14T05:48:18;9.60;;;8.70;;
757;SDS011;363;48.764;9.172;2023-05-14T05:50:45;9.97;;;9.00;;
757;SDS011;363;48.764;9.172;2023-05-14T05:53:13;10.43;;;9.48;;
757;SDS011;363;48.764;9.172;2023-05-14T05:55:40;10.40;;;9.40;;
757;SDS011;363;48.764;9.172;2023-05-14T05:58:06;9.53;;;8.53;;
757;SDS011;363;48.764;9.172;2023-05-14T06:00:32;9.60;;;8.70;;
757;SDS011;363;48.764;9.172;2023-05-14T06:02:58;10.60;;;8.70;;
757;SDS011;363;48.764;9.172;2023-05-14T06:05:23;8.77;;;7.90;;
757;SDS011;363;48.764;9.172;2023-05-14T06:07:49;9.80;;;8.80;;
757;SDS011;363;48.764;9.172;2023-05-14T06:10:15;8.77;;;7.97;;
757;SDS011;363;48.764;9.172;2023-05-14T06:12:41;10.07;;;9.00;;
757;SDS011;363;48.764;9.172;2023-05-14T06:15:06;9.07;;;8.27;;
757;SDS011;363;48.764;9.172;2023-05-14T06:17:32;9.27;;;8.38;;
757;SDS011;363;48.764;9.172;2023-05-14T06:19:58;9.40;;;8.50;;
757;SDS011;363;48.764;9.172;2023-05-14T06:22:24;9.60;;;8.70;;
757;SDS011;363;48.764;9.172;2023-05-14T06:24:49;9.30;;;8.50;;
757;SDS011;363;48.764;9.172;2023-05-14T06:27:15;9.13;;;8.33;;
757;SDS011;363;48.764;9.172;2023-05-14T06:29:40;9.50;;;8.60;;
757;SDS011;363;48.764;9.172;2023-05-14T06:32:06;8.73;;;7.93;;
757;SDS011;363;48.764;9.172;2023-05-14T06:34:32;10.02;;;9.02;;
757;SDS011;363;48.764;9.172;2023-05-14T06:36:58;10.60;;;9.03;;
757;SDS011;363;48.764;9.172;2023-05-14T06:39:26;9.60;;;8.70;;
757;SDS011;363;48.764;9.172;2023-05-14T06:41:52;9.50;;;8.60;;
757;SDS011;363;48.764;9.172;2023-05-14T06:44:17;9.57;;;8.77;;
757;SDS011;363;48.764;9.172;2023-05-14T06:46:43;10.50;;;9.40;;
757;SDS011;363;48.764;9.172;2023-05-14T06:49:09;9.93;;;9.03;;
757;SDS011;363;48.764;9.172;2023-05-14T06:51:34;8.77;;;7.97;;
757;SDS011;363;48.764;9.172;2023-05-14T06:54:00;9.70;;;8.80;;
757;SDS011;363;48.764;9.172;2023-05-14T06:56:26;9.30;;;8.40;;
757;SDS011;363;48.764;9.172;2023-05-14T06:58:51;9.23;;;8.43;;
757;SDS011;363;48.764;9.172;2023-05-14T07:01:17;9.80;;;8.90;;
757;SDS011;363;48.764;9.172;2023-05-14T07:03:42;10.47;;;9.50;;
757;SDS011;363;48.764;9.172;2023-05-14T07:06:08;10.20;;;8.97;;
757;SDS011;363;48.764;9.172;2023-05-14T07:08:33;10.00;;;9.10;;
757;SDS011;363;48.764;9.172;2023-05-14T07:11:00;9.27;;;8.40;;
757;SDS011;363;48.764;9.172;2023-05-14T07:13:25;10.40;;;9.40;;
757;SDS011;363;48.764;9.172;2023-05-14T07:15:52;9.00;;;8.10;;
757;SDS011;363;48.764;9.172;2023-05-14T07:18:19;10.13;;;9.05;;
757;SDS011;363;48.764;9.172;2023-05-14T07:20:45;9.32;;;8.55;;
757;SDS011;363;48.764;9.172;2023-05-14T07:23:11;8.87;;;8.07;;
757;SDS011;363;48.764;9.172;2023-05-14T07:25:37;9.00;;;8.20;;
757;SDS011;363;48.764;9.172;2023-05-14T07:28:02;9.00;;;8.20;;
757;SDS011;363;48.764;9.172;2023-05-14T07:30:28;8.87;;;8.07;;
757;SDS011;363;48.764;9.172;2023-05-14T07:32:53;9.07;;;8.37;;
757;SDS011;363;48.764;9.172;2023-05-14T07:35:19;9.87;;;8.97;;
757;SDS011;363;48.764;9.172;2023-05-14T07:37:45;10.40;;;9.50;;
757;SDS011;363;48.764;9.172;2023-05-14T07:40:10;10.37;;;9.37;;
757;SDS011;363;48.764;9.172;2023-05-14T07:42:36;9.07;;;8.27;;
757;SDS011;363;48.764;9.172;2023-05-14T07:45:03;8.77;;;8.07;;
757;SDS011;363;48.764;9.172;2023-05-14T07:47:31;8.68;;;7.97;;
757;SDS011;363;48.764;9.172;2023-05-14T07:49:57;10.03;;;9.13;;
757;SDS011;363;48.764;9.172;2023-05-14T07:52:23;9.25;;;8.35;;
757;SDS011;363;48.764;9.172;2023-05-14T07:54:49;9.70;;;8.90;;
757;SDS011;363;48.764;9.172;2023-05-14T07:57:15;9.40;;;8.50;;
757;SDS011;363;48.764;9.172;2023-05-14T07:59:41;12.75;;;8.70;;
757;SDS011;363;48.764;9.172;2023-05-14T08:02:07;8.90;;;8.00;;
757;SDS011;363;48.764;9.172;2023-05-14T08:04:37;9.80;;;8.80;;
757;SDS011;363;48.764;9.172;2023-05-14T08:07:03;10.23;;;8.65;;
757;SDS011;363;48.764;9.172;2023-05-14T08:09:28;8.97;;;8.23;;
757;SDS011;363;48.764;9.172;2023-05-14T08:11:54;9.30;;;8.50;;
757;SDS011;363;48.764;9.172;2023-05-14T08:14:20;9.60;;;8.60;;
757;SDS011;363;48.764;9.172;2023-05-14T08:16:45;8.77;;;7.97;;
757;SDS011;363;48.764;9.172;2023-05-14T08:19:11;9.73;;;8.82;;
757;SDS011;363;48.764;9.172;2023-05-14T08:21:37;9.90;;;9.00;;
757;SDS011;363;48.764;9.172;2023-05-14T08:24:03;8.20;;;7.50;;
757;SDS011;363;48.764;9.172;2023-05-14T08:26:29;7.03;;;6.50;;
757;SDS011;363;48.764;9.172;2023-05-14T08:28:54;7.97;;;7.37;;
757;SDS011;363;48.764;9.172;2023-05-14T08:31:20;9.43;;;8.67;;
757;SDS011;363;48.764;9.172;2023-05-14T08:33:45;9.23;;;8.43;;
757;SDS011;363;48.764;9.172;2023-05-14T08:36:11;8.20;;;7.50;;
757;SDS011;363;48.764;9.172;2023-05-14T08:38:36;9.23;;;8.07;;
757;SDS011;363;48.764;9.172;2023-05-14T08:41:02;8.10;;;7.50;;
757;SDS011;363;48.764;9.172;2023-05-14T08:43:32;8.47;;;7.77;;
757;SDS011;363;48.764;9.172;2023-05-14T08:46:16;8.87;;;8.17;;
757;SDS011;363;48.764;9.172;2023-05-14T08:48:47;8.20;;;7.50;;
757;SDS011;363;48.764;9.172;2023-05-14T08:51:19;11.77;;;10.60;;
757;SDS011;363;48.764;9.172;2023-05-14T08:53:45;8.70;;;8.00;;
757;SDS011;363;48.764;9.172;2023-05-14T08:56:11;9.97;;;9.00;;
757;SDS011;363;48.764;9.172;2023-05-14T08:58:38;10.00;;;9.10;;
757;SDS011;363;48.764;9.172;2023-05-14T09:01:03;8.80;;;8.00;;
757;SDS011;363;48.764;9.172;2023-05-14T09:03:29;9.77;;;8.97;;
757;SDS011;363;48.764;9.172;2023-05-14T09:05:56;9.30;;;8.50;;
757;SDS011;363;48.764;9.172;2023-05-14T09:08:23;8.90;;;8.03;;
757;SDS011;363;48.764;9.172;2023-05-14T09:10:48;9.87;;;9.00;;
757;SDS011;363;48.764;9.172;2023-05-14T09:13:14;10.10;;;9.20;;
757;SDS011;363;48.764;9.172;2023-05-14T09:15:40;10.33;;;9.33;;
757;SDS011;363;48.764;9.172;2023-05-14T09:18:06;8.50;;;7.80;;
757;SDS011;363;48.764;9.172;2023-05-14T09:20:31;9.33;;;8.53;;
757;SDS011;363;48.764;9.172;2023-05-14T09:22:57;9.90;;;9.10;;
757;SDS011;363;48.764;9.172;2023-05-14T09:25:26;9.93;;;9.00;;
757;SDS011;363;48.764;9.172;2023-05-14T09:27:54;10.30;;;9.27;;
757;SDS011;363;48.764;9.172;2023-05-14T09:30:20;9.43;;;8.53;;
757;SDS011;363;48.764;9.172;2023-05-14T09:32:46;9.40;;;8.50;;
757;SDS011;363;48.764;9.172;2023-05-14T09:35:15;9.50;;;8.70;;
757;SDS011;363;48.764;9.172;2023-05-14T09:37:42;9.13;;;8.43;;
757;SDS011;363;48.764;9.172;2023-05-14T09:40:12;28.03;;;25.53;;
757;SDS011;363;48.764;9.172;2023-05-14T09:42:38;8.83;;;8.13;;
757;SDS011;363;48.764;9.172;2023-05-14T09:45:05;8.87;;;8.07;;
757;SDS011;363;48.764;9.172;2023-05-14T09:47:32;8.77;;;8.07;;
757;SDS011;363;48.764;9.172;2023-05-14T09:49:58;8.63;;;7.93;;
757;SDS011;363;48.764;9.172;2023-05-14T09:52:23;8.90;;;8.10;;
757;SDS011;363;48.764;9.172;2023-05-14T09:54:53;8.10;;;7.40;;
757;SDS011;363;48.764;9.172;2023-05-14T09:57:19;8.10;;;7.40;;
757;SDS011;363;48.764;9.172;2023-05-14T09:59:45;8.53;;;7.83;;
757;SDS011;363;48.764;9.172;2023-05-14T10:02:24;8.23;;;7.50;;
757;SDS011;363;48.764;9.172;2023-05-14T10:04:59;10.40;;;9.50;;
757;SDS011;363;48.764;9.172;2023-05-14T10:07:30;9.20;;;8.45;;
757;SDS011;363;48.764;9.172;2023-05-14T10:10:02;9.10;;;8.30;;
757;SDS011;363;48.764;9.172;2023-05-14T10:12:35;8.30;;;7.60;;
757;SDS011;363;48.764;9.172;2023-05-14T10:15:04;8.80;;;8.00;;
757;SDS011;363;48.764;9.172;2023-05-14T10:17:36;9.23;;;8.52;;
757;SDS011;363;48.764;9.172;2023-05-14T10:20:08;8.45;;;7.65;;
757;SDS011;363;48.764;9.172;2023-05-14T10:22:36;8.20;;;7.40;;
757;SDS011;363;48.764;9.172;2023-05-14T10:25:02;7.33;;;6.63;;
757;SDS011;363;48.764;9.172;2023-05-14T10:27:29;7.10;;;6.50;;
757;SDS011;363;48.764;9.172;2023-05-14T10:29:55;7.72;;;7.03;;
757;SDS011;363;48.764;9.172;2023-05-14T10:32:21;8.70;;;7.37;;
757;SDS011;363;48.764;9.172;2023-05-14T10:34:49;7.80;;;7.20;;
757;SDS011;363;48.764;9.172;2023-05-14T10:37:16;7.18;;;6.57;;
757;SDS011;363;48.764;9.172;2023-05-14T10:42:12;7.13;;;6.50;;
757;SDS011;363;48.764;9.172;2023-05-14T10:45:05;7.65;;;6.95;;
757;SDS011;363;48.764;9.172;2023-05-14T10:47:38;7.50;;;6.90;;
757;SDS011;363;48.764;9.172;2023-05-14T10:50:06;8.13;;;7.40;;
757;SDS011;363;48.764;9.172;2023-05-14T10:52:34;7.57;;;6.97;;
757;SDS011;363;48.764;9.172;2023-05-14T10:55:04;7.63;;;6.93;;
757;SDS011;363;48.764;9.172;2023-05-14T10:57:37;7.50;;;6.82;;
757;SDS011;363;48.764;9.172;2023-05-14T11:00:04;7.40;;;6.90;;
757;SDS011;363;48.764;9.172;2023-05-14T11:02:38;7.70;;;7.00;;
757;SDS011;363;48.764;9.172;2023-05-14T11:05:09;8.10;;;7.30;;
757;SDS011;363;48.764;9.172;2023-05-14T11:07:41;8.23;;;7.53;;
757;SDS011;363;48.764;9.172;2023-05-14T11:10:12;8.18;;;7.38;;
757;SDS011;363;48.764;9.172;2023-05-14T11:12:43;7.07;;;6.47;;
757;SDS011;363;48.764;9.172;2023-05-14T11:15:11;6.60;;;6.03;;
757;SDS011;363;48.764;9.172;2023-05-14T11:17:39;8.55;;;7.07;;
757;SDS011;363;48.764;9.172;2023-05-14T11:20:06;8.13;;;7.43;;
757;SDS011;363;48.764;9.172;2023-05-14T11:22:33;8.10;;;7.40;;
757;SDS011;363;48.764;9.172;2023-05-14T11:25:00;7.50;;;6.90;;
757;SDS011;363;48.764;9.172;2023-05-14T11:27:26;7.67;;;6.97;;
757;SDS011;363;48.764;9.172;2023-05-14T11:29:52;9.10;;;8.00;;
757;SDS011;363;48.764;9.172;2023-05-14T11:32:19;9.20;;;8.30;;
757;SDS011;363;48.764;9.172;2023-05-14T11:34:45;8.63;;;7.73;;
757;SDS011;363;48.764;9.172;2023-05-14T11:37:11;8.03;;;7.33;;
757;SDS011;363;48.764;9.172;2023-05-14T11:39:38;7.45;;;6.80;;
757;SDS011;363;48.764;9.172;2023-05-14T11:42:11;7.07;;;6.47;;
757;SDS011;363;48.764;9.172;2023-05-14T11:44:38;7.23;;;6.73;;
757;SDS011;363;48.764;9.172;2023-05-14T11:47:05;7.60;;;7.00;;
757;SDS011;363;48.764;9.172;2023-05-14T11:49:31;8.17;;;7.57;;
757;SDS011;363;48.764;9.172;2023-05-14T11:52:03;8.27;;;7.57;;
757;SDS011;363;48.764;9.172;2023-05-14T11:54:30;8.03;;;7.20;;
757;SDS011;363;48.764;9.172;2023-05-14T11:56:57;7.20;;;6.60;;
757;SDS011;363;48.764;9.172;2023-05-14T11:59:27;6.47;;;5.93;;
757;SDS011;363;48.764;9.172;2023-05-14T12:01:55;7.30;;;6.65;;
757;SDS011;363;48.764;9.172;2023-05-14T12:04:21;6.33;;;5.83;;
757;SDS011;363;48.764;9.172;2023-05-14T12:06:50;7.23;;;6.63;;
757;SDS011;363;48.764;9.172;2023-05-14T12:09:20;7.30;;;6.63;;
757;SDS011;363;48.764;9.172;2023-05-14T12:11:47;7.05;;;6.55;;
757;SDS011;363;48.764;9.172;2023-05-14T12:14:21;6.57;;;5.97;;
757;SDS011;363;48.764;9.172;2023-05-14T12:16:48;6.35;;;5.78;;
757;SDS011;363;48.764;9.172;2023-05-14T12:19:15;6.80;;;6.20;;
757;SDS011;363;48.764;9.172;2023-05-14T12:21:42;6.22;;;5.63;;
757;SDS011;363;48.764;9.172;2023-05-14T12:24:10;8.15;;;6.60;;
757;SDS011;363;48.764;9.172;2023-05-14T12:26:44;6.63;;;6.07;;
757;SDS011;363;48.764;9.172;2023-05-14T12:29:11;6.15;;;5.50;;
757;SDS011;363;48.764;9.172;2023-05-14T12:31:43;6.35;;;5.85;;
757;SDS011;363;48.764;9.172;2023-05-14T12:34:11;6.13;;;5.53;;
757;SDS011;363;48.764;9.172;2023-05-14T12:36:37;6.57;;;6.07;;
757;SDS011;363;48.764;9.172;2023-05-14T12:39:02;6.23;;;5.77;;
757;SDS011;363;48.764;9.172;2023-05-14T12:41:29;6.40;;;5.80;;
757;SDS011;363;48.764;9.172;2023-05-14T12:43:56;5.50;;;5.10;;
757;SDS011;363;48.764;9.172;2023-05-14T12:46:22;7.20;;;6.60;;
757;SDS011;363;48.764;9.172;2023-05-14T12:48:48;5.93;;;5.53;;
757;SDS011;363;48.764;9.172;2023-05-14T12:51:13;4.70;;;4.37;;
757;SDS011;363;48.764;9.172;2023-05-14T12:53:39;5.22;;;4.82;;
757;SDS011;363;48.764;9.172;2023-05-14T12:56:07;5.45;;;5.05;;
757;SDS011;363;48.764;9.172;2023-05-14T12:58:33;6.03;;;5.60;;
757;SDS011;363;48.764;9.172;2023-05-14T13:00:58;5.47;;;5.07;;
757;SDS011;363;48.764;9.172;2023-05-14T13:03:24;5.23;;;4.90;;
757;SDS011;363;48.764;9.172;2023-05-14T13:05:50;5.80;;;5.30;;
757;SDS011;363;48.764;9.172;2023-05-14T13:08:16;5.60;;;5.20;;
757;SDS011;363;48.764;9.172;2023-05-14T13:10:42;5.33;;;4.93;;
757;SDS011;363;48.764;9.172;2023-05-14T13:13:09;5.57;;;5.18;;
757;SDS011;363;48.764;9.172;2023-05-14T13:15:35;6.07;;;5.57;;
757;SDS011;363;48.764;9.172;2023-05-14T13:18:01;6.03;;;5.53;;
757;SDS011;363;48.764;9.172;2023-05-14T13:20:27;5.70;;;5.23;;
757;SDS011;363;48.764;9.172;2023-05-14T13:22:54;4.30;;;4.00;;
757;SDS011;363;48.764;9.172;2023-05-14T13:25:20;4.63;;;4.33;;
757;SDS011;363;48.764;9.172;2023-05-14T13:27:46;4.83;;;4.27;;
757;SDS011;363;48.764;9.172;2023-05-14T13:30:15;4.35;;;4.05;;
757;SDS011;363;48.764;9.172;2023-05-14T13:32:42;5.05;;;4.65;;
757;SDS011;363;48.764;9.172;2023-05-14T13:35:07;5.03;;;4.63;;
757;SDS011;363;48.764;9.172;2023-05-14T13:37:33;5.03;;;4.63;;
757;SDS011;363;48.764;9.172;2023-05-14T13:39:59;5.85;;;5.35;;
757;SDS011;363;48.764;9.172;2023-05-14T13:42:25;5.63;;;5.20;;
757;SDS011;363;48.764;9.172;2023-05-14T13:44:51;5.97;;;5.57;;
757;SDS011;363;48.764;9.172;2023-05-14T13:47:16;6.37;;;5.87;;
757;SDS011;363;48.764;9.172;2023-05-14T13:49:42;5.93;;;5.33;;
757;SDS011;363;48.764;9.172;2023-05-14T13:52:07;5.53;;;5.03;;
757;SDS011;363;48.764;9.172;2023-05-14T13:54:33;6.77;;;6.20;;
757;SDS011;363;48.764;9.172;2023-05-14T13:56:58;5.80;;;5.30;;
757;SDS011;363;48.764;9.172;2023-05-14T13:59:24;5.10;;;4.70;;
757;SDS011;363;48.764;9.172;2023-05-14T14:01:50;5.40;;;4.90;;
757;SDS011;363;48.764;9.172;2023-05-14T14:04:16;5.27;;;4.77;;
757;SDS011;363;48.764;9.172;2023-05-14T14:06:41;5.37;;;4.87;;
757;SDS011;363;48.764;9.172;2023-05-14T14:09:07;5.40;;;5.00;;
757;SDS011;363;48.764;9.172;2023-05-14T14:11:33;6.93;;;6.33;;
757;SDS011;363;48.764;9.172;2023-05-14T14:13:59;5.60;;;5.20;;
757;SDS011;363;48.764;9.172;2023-05-14T14:16:25;5.30;;;4.90;;
757;SDS011;363;48.764;9.172;2023-05-14T14:18:50;5.53;;;5.00;;
757;SDS011;363;48.764;9.172;2023-05-14T14:21:16;5.60;;;5.10;;
757;SDS011;363;48.764;9.172;2023-05-14T14:23:44;5.47;;;4.97;;
757;SDS011;363;48.764;9.172;2023-05-14T14:26:10;5.78;;;5.18;;
757;SDS011;363;48.764;9.172;2023-05-14T14:28:35;4.97;;;4.30;;
757;SDS011;363;48.764;9.172;2023-05-14T14:31:01;5.23;;;4.83;;
757;SDS011;363;48.764;9.172;2023-05-14T14:33:27;4.43;;;4.13;;
757;SDS011;363;48.764;9.172;2023-05-14T14:35:52;7.00;;;6.40;;
757;SDS011;363;48.764;9.172;2023-05-14T14:38:18;6.80;;;6.30;;
757;SDS011;363;48.764;9.172;2023-05-14T14:40:44;6.13;;;5.53;;
757;SDS011;363;48.764;9.172;2023-05-14T14:43:10;4.85;;;4.45;;
757;SDS011;363;48.764;9.172;2023-05-14T14:45:36;6.87;;;6.37;;
757;SDS011;363;48.764;9.172;2023-05-14T14:48:20;5.50;;;5.10;;
757;SDS011;363;48.764;9.172;2023-05-14T14:50:46;5.53;;;5.03;;
757;SDS011;363;48.764;9.172;2023-05-14T14:53:12;5.43;;;5.03;;
757;SDS011;363;48.764;9.172;2023-05-14T14:55:37;6.10;;;5.60;;
757;SDS011;363;48.764;9.172;2023-05-14T14:58:03;5.47;;;4.97;;
757;SDS011;363;48.764;9.172;2023-05-14T15:00:28;5.07;;;4.67;;
757;SDS011;363;48.764;9.172;2023-05-14T15:02:54;4.87;;;4.47;;
757;SDS011;363;48.764;9.172;2023-05-14T15:05:19;5.23;;;4.83;;
757;SDS011;363;48.764;9.172;2023-05-14T15:07:45;4.67;;;4.33;;
757;SDS011;363;48.764;9.172;2023-05-14T15:10:11;3.83;;;3.53;;
757;SDS011;363;48.764;9.172;2023-05-14T15:12:36;3.30;;;3.00;;
757;SDS011;363;48.764;9.172;2023-05-14T15:15:02;3.50;;;3.20;;
757;SDS011;363;48.764;9.172;2023-05-14T15:17:28;4.10;;;3.80;;
757;SDS011;363;48.764;9.172;2023-05-14T15:19:53;4.33;;;3.93;;
757;SDS011;363;48.764;9.172;2023-05-14T15:22:19;4.50;;;4.20;;
757;SDS011;363;48.764;9.172;2023-05-14T15:24:45;4.38;;;3.97;;
757;SDS011;363;48.764;9.172;2023-05-14T15:27:11;4.20;;;3.90;;
757;SDS011;363;48.764;9.172;2023-05-14T15:29:36;4.60;;;4.20;;
757;SDS011;363;48.764;9.172;2023-05-14T15:32:02;4.40;;;4.00;;
757;SDS011;363;48.764;9.172;2023-05-14T15:34:28;3.78;;;3.45;;
757;SDS011;363;48.764;9.172;2023-05-14T15:36:54;4.27;;;3.97;;
757;SDS011;363;48.764;9.172;2023-05-14T15:39:19;3.80;;;3.50;;
757;SDS011;363;48.764;9.172;2023-05-14T15:41:45;4.10;;;3.80;;